sensor_id;sensor_type;location;lat;lon;timestamp;temperature;humidity
10980;DHT22;5543;51.734;8.744;2023-04-25T00:00:26;6.70;99.90
10980;DHT22;5543;51.734;8.744;2023-04-25T00:02:54;6.70;99.90
10980;DHT22;5543;51.734;8.744;2023-04-25T00:05:25;6.70;99.90
10980;DHT22;5543;51.734;8.744;2023-04-25T00:07:53;6.80;99.90
10980;DHT22;5543;51.734;8.744;2023-04-25T00:10:21;6.80;99.90
10980;DHT22;5543;51.734;8.744;2023-04-25T00:12:49;6.70;99.90
10980;DHT22;5543;51.734;8.744;2023-04-25T00:15:20;6.80;99.90
10980;DHT22;5543;51.734;8.744;2023-04-25T00:17:48;6.80;99.90
10980;DHT22;5543;51.734;8.744;2023-04-25T00:20:16;7.00;99.90
10980;DHT22;5543;51.734;8.744;2023-04-25T00:22:44;6.80;99.90
10980;DHT22;5543;51.734;8.744;2023-04-25T00:25:12;6.70;99.90
10980;DHT22;5543;51.734;8.744;2023-04-25T00:27:40;6.80;99.90
10980;DHT22;5543;51.734;8.744;2023-04-25T00:30:09;6.80;99.90
10980;DHT22;5543;51.734;8.744;2023-04-25T00:32:39;6.80;99.90
10980;DHT22;5543;51.734;8.744;2023-04-25T00:35:08;6.90;99.90
10980;DHT22;5543;51.734;8.744;2023-04-25T00:37:36;6.80;99.90
10980;DHT22;5543;51.734;8.744;2023-04-25T00:40:06;6.80;99.90
10980;DHT22;5543;51.734;8.744;2023-04-25T00:42:35;6.80;99.90
10980;DHT22;5543;51.734;8.744;2023-04-25T00:45:05;7.00;99.90
10980;DHT22;5543;51.734;8.744;2023-04-25T00:47:36;6.90;99.90
10980;DHT22;5543;51.734;8.744;2023-04-25T00:50:07;6.90;99.90
10980;DHT22;5543;51.734;8.744;2023-04-25T00:52:36;6.90;99.90
10980;DHT22;5543;51.734;8.744;2023-04-25T00:55:05;6.90;99.90
10980;DHT22;5543;51.734;8.744;2023-04-25T00:57:34;6.90;99.90
10980;DHT22;5543;51.734;8.744;2023-04-25T01:00:03;7.10;99.90
10980;DHT22;5543;51.734;8.744;2023-04-25T01:02:33;6.80;99.90
10980;DHT22;5543;51.734;8.744;2023-04-25T01:05:04;6.80;99.90
10980;DHT22;5543;51.734;8.744;2023-04-25T01:07:33;6.80;99.90
10980;DHT22;5543;51.734;8.744;2023-04-25T01:10:02;6.80;99.90
10980;DHT22;5543;51.734;8.744;2023-04-25T01:12:30;6.90;99.90
10980;DHT22;5543;51.734;8.744;2023-04-25T01:14:58;6.80;99.90
10980;DHT22;5543;51.734;8.744;2023-04-25T01:17:26;6.70;99.90
10980;DHT22;5543;51.734;8.744;2023-04-25T01:19:56;6.90;99.90
10980;DHT22;5543;51.734;8.744;2023-04-25T01:22:25;6.90;99.90
10980;DHT22;5543;51.734;8.744;2023-04-25T01:24:53;7.00;99.90
10980;DHT22;5543;51.734;8.744;2023-04-25T01:27:22;6.90;99.90
10980;DHT22;5543;51.734;8.744;2023-04-25T01:29:50;6.90;99.90
10980;DHT22;5543;51.734;8.744;2023-04-25T01:32:18;7.10;99.90
10980;DHT22;5543;51.734;8.744;2023-04-25T01:34:47;6.80;99.90
10980;DHT22;5543;51.734;8.744;2023-04-25T01:37:16;6.90;99.90
10980;DHT22;5543;51.734;8.744;2023-04-25T01:39:45;6.80;99.90
10980;DHT22;5543;51.734;8.744;2023-04-25T01:42:15;6.70;99.90
10980;DHT22;5543;51.734;8.744;2023-04-25T01:44:43;6.60;99.90
10980;DHT22;5543;51.734;8.744;2023-04-25T01:47:11;6.70;99.90
10980;DHT22;5543;51.734;8.744;2023-04-25T01:49:39;6.70;99.90
10980;DHT22;5543;51.734;8.744;2023-04-25T01:52:07;6.70;99.90
10980;DHT22;5543;51.734;8.744;2023-04-25T01:54:35;6.70;99.90
10980;DHT22;5543;51.734;8.744;2023-04-25T01:57:05;6.60;99.90
10980;DHT22;5543;51.734;8.744;2023-04-25T01:59:33;6.70;99.90
10980;DHT22;5543;51.734;8.744;2023-04-25T02:02:01;6.70;99.90
10980;DHT22;5543;51.734;8.744;2023-04-25T02:04:30;6.70;99.90
10980;DHT22;5543;51.734;8.744;2023-04-25T02:06:59;6.70;99.90
10980;DHT22;5543;51.734;8.744;2023-04-25T02:09:27;6.70;99.90
10980;DHT22;5543;51.734;8.744;2023-04-25T02:11:55;6.70;99.90
10980;DHT22;5543;51.734;8.744;2023-04-25T02:14:24;6.70;99.90
10980;DHT22;5543;51.734;8.744;2023-04-25T02:16:52;6.60;99.90
10980;DHT22;5543;51.734;8.744;2023-04-25T02:19:21;6.60;99.90
10980;DHT22;5543;51.734;8.744;2023-04-25T02:21:49;6.60;99.90
10980;DHT22;5543;51.734;8.744;2023-04-25T02:24:17;6.60;99.90
10980;DHT22;5543;51.734;8.744;2023-04-25T02:26:45;6.60;99.90
10980;DHT22;5543;51.734;8.744;2023-04-25T02:29:13;6.60;99.90
10980;DHT22;5543;51.734;8.744;2023-04-25T02:31:43;6.60;99.90
10980;DHT22;5543;51.734;8.744;2023-04-25T02:34:11;6.60;99.90
10980;DHT22;5543;51.734;8.744;2023-04-25T02:36:39;6.60;99.90
10980;DHT22;5543;51.734;8.744;2023-04-25T02:39:07;6.60;99.90
10980;DHT22;5543;51.734;8.744;2023-04-25T02:41:35;6.40;99.90
10980;DHT22;5543;51.734;8.744;2023-04-25T02:44:04;6.30;99.90
10980;DHT22;5543;51.734;8.744;2023-04-25T02:46:32;6.40;99.90
10980;DHT22;5543;51.734;8.744;2023-04-25T02:49:07;6.40;99.90
10980;DHT22;5543;51.734;8.744;2023-04-25T02:51:35;6.40;99.90
10980;DHT22;5543;51.734;8.744;2023-04-25T02:54:03;6.40;99.90
10980;DHT22;5543;51.734;8.744;2023-04-25T02:56:33;6.40;99.90
10980;DHT22;5543;51.734;8.744;2023-04-25T02:59:01;6.40;99.90
10980;DHT22;5543;51.734;8.744;2023-04-25T03:01:29;6.30;99.90
10980;DHT22;5543;51.734;8.744;2023-04-25T03:03:57;6.50;99.90
10980;DHT22;5543;51.734;8.744;2023-04-25T03:06:27;6.30;99.90
10980;DHT22;5543;51.734;8.744;2023-04-25T03:08:55;6.30;99.90
10980;DHT22;5543;51.734;8.744;2023-04-25T03:11:25;6.40;99.90
10980;DHT22;5543;51.734;8.744;2023-04-25T03:13:53;6.40;99.90
10980;DHT22;5543;51.734;8.744;2023-04-25T03:16:21;6.30;99.90
10980;DHT22;5543;51.734;8.744;2023-04-25T03:18:49;6.30;99.90
10980;DHT22;5543;51.734;8.744;2023-04-25T03:21:18;6.30;99.90
10980;DHT22;5543;51.734;8.744;2023-04-25T03:23:47;6.30;99.90
10980;DHT22;5543;51.734;8.744;2023-04-25T03:26:15;6.40;99.90
10980;DHT22;5543;51.734;8.744;2023-04-25T03:28:44;6.50;99.90
10980;DHT22;5543;51.734;8.744;2023-04-25T03:31:12;6.30;99.90
10980;DHT22;5543;51.734;8.744;2023-04-25T03:33:40;6.30;99.90
10980;DHT22;5543;51.734;8.744;2023-04-25T03:36:08;6.30;99.90
10980;DHT22;5543;51.734;8.744;2023-04-25T03:38:36;6.30;99.90
10980;DHT22;5543;51.734;8.744;2023-04-25T03:41:06;6.60;99.90
10980;DHT22;5543;51.734;8.744;2023-04-25T03:43:34;6.30;99.90
10980;DHT22;5543;51.734;8.744;2023-04-25T03:46:02;6.30;99.90
10980;DHT22;5543;51.734;8.744;2023-04-25T03:48:30;6.30;99.90
10980;DHT22;5543;51.734;8.744;2023-04-25T03:50:58;6.30;99.90
10980;DHT22;5543;51.734;8.744;2023-04-25T03:53:26;6.30;99.90
10980;DHT22;5543;51.734;8.744;2023-04-25T03:55:54;6.30;99.90
10980;DHT22;5543;51.734;8.744;2023-04-25T03:58:24;6.30;99.90
10980;DHT22;5543;51.734;8.744;2023-04-25T04:00:52;6.30;99.90
10980;DHT22;5543;51.734;8.744;2023-04-25T04:03:20;6.30;99.90
10980;DHT22;5543;51.734;8.744;2023-04-25T04:05:48;6.30;99.90
10980;DHT22;5543;51.734;8.744;2023-04-25T04:08:17;6.20;99.90
10980;DHT22;5543;51.734;8.744;2023-04-25T04:10:45;6.30;99.90
10980;DHT22;5543;51.734;8.744;2023-04-25T04:13:13;6.50;99.90
10980;DHT22;5543;51.734;8.744;2023-04-25T04:15:42;6.30;99.90
10980;DHT22;5543;51.734;8.744;2023-04-25T04:18:10;6.30;99.90
10980;DHT22;5543;51.734;8.744;2023-04-25T04:20:39;6.50;99.90
10980;DHT22;5543;51.734;8.744;2023-04-25T04:23:07;6.30;99.90
10980;DHT22;5543;51.734;8.744;2023-04-25T04:25:35;6.40;99.90
10980;DHT22;5543;51.734;8.744;2023-04-25T04:28:03;6.40;99.90
10980;DHT22;5543;51.734;8.744;2023-04-25T04:30:32;6.40;99.90
10980;DHT22;5543;51.734;8.744;2023-04-25T04:33:04;6.40;99.90
10980;DHT22;5543;51.734;8.744;2023-04-25T04:35:34;6.50;99.90
10980;DHT22;5543;51.734;8.744;2023-04-25T04:38:02;6.50;99.90
10980;DHT22;5543;51.734;8.744;2023-04-25T04:40:30;6.50;99.90
10980;DHT22;5543;51.734;8.744;2023-04-25T04:42:59;6.40;99.90
10980;DHT22;5543;51.734;8.744;2023-04-25T04:45:27;6.50;99.90
10980;DHT22;5543;51.734;8.744;2023-04-25T04:47:55;6.50;99.90
10980;DHT22;5543;51.734;8.744;2023-04-25T04:50:25;6.50;99.90
10980;DHT22;5543;51.734;8.744;2023-04-25T04:52:54;6.50;99.90
10980;DHT22;5543;51.734;8.744;2023-04-25T04:55:22;6.80;99.90
10980;DHT22;5543;51.734;8.744;2023-04-25T04:57:50;6.50;99.90
10980;DHT22;5543;51.734;8.744;2023-04-25T05:00:18;6.60;99.90
10980;DHT22;5543;51.734;8.744;2023-04-25T05:02:47;6.50;99.90
10980;DHT22;5543;51.734;8.744;2023-04-25T05:05:16;6.60;99.90
10980;DHT22;5543;51.734;8.744;2023-04-25T05:07:45;6.60;99.90
10980;DHT22;5543;51.734;8.744;2023-04-25T05:10:13;6.60;99.90
10980;DHT22;5543;51.734;8.744;2023-04-25T05:12:42;6.60;99.90
10980;DHT22;5543;51.734;8.744;2023-04-25T05:15:10;6.60;99.90
10980;DHT22;5543;51.734;8.744;2023-04-25T05:17:38;6.60;99.90
10980;DHT22;5543;51.734;8.744;2023-04-25T05:20:07;6.60;99.90
10980;DHT22;5543;51.734;8.744;2023-04-25T05:22:36;6.60;99.90
10980;DHT22;5543;51.734;8.744;2023-04-25T05:25:06;6.70;99.90
10980;DHT22;5543;51.734;8.744;2023-04-25T05:27:34;6.60;99.90
10980;DHT22;5543;51.734;8.744;2023-04-25T05:30:02;6.60;99.90
10980;DHT22;5543;51.734;8.744;2023-04-25T05:32:31;6.60;99.90
10980;DHT22;5543;51.734;8.744;2023-04-25T05:34:59;6.60;99.90
10980;DHT22;5543;51.734;8.744;2023-04-25T05:37:28;6.60;99.90
10980;DHT22;5543;51.734;8.744;2023-04-25T05:39:57;6.60;99.90
10980;DHT22;5543;51.734;8.744;2023-04-25T05:42:26;6.60;99.90
10980;DHT22;5543;51.734;8.744;2023-04-25T05:44:54;6.70;99.90
10980;DHT22;5543;51.734;8.744;2023-04-25T05:47:23;6.50;99.90
10980;DHT22;5543;51.734;8.744;2023-04-25T05:49:52;6.70;99.90
10980;DHT22;5543;51.734;8.744;2023-04-25T05:52:20;6.60;99.90
10980;DHT22;5543;51.734;8.744;2023-04-25T05:54:48;6.90;99.90
10980;DHT22;5543;51.734;8.744;2023-04-25T05:57:20;6.80;99.90
10980;DHT22;5543;51.734;8.744;2023-04-25T05:59:50;6.80;99.90
10980;DHT22;5543;51.734;8.744;2023-04-25T06:02:19;6.80;99.90
10980;DHT22;5543;51.734;8.744;2023-04-25T06:04:49;6.90;99.90
10980;DHT22;5543;51.734;8.744;2023-04-25T06:07:17;6.90;99.90
10980;DHT22;5543;51.734;8.744;2023-04-25T06:09:45;6.90;99.90
10980;DHT22;5543;51.734;8.744;2023-04-25T06:12:13;7.00;99.90
10980;DHT22;5543;51.734;8.744;2023-04-25T06:14:41;7.00;99.90
10980;DHT22;5543;51.734;8.744;2023-04-25T06:17:11;7.10;99.90
10980;DHT22;5543;51.734;8.744;2023-04-25T06:19:39;7.20;99.90
10980;DHT22;5543;51.734;8.744;2023-04-25T06:22:07;7.40;99.90
10980;DHT22;5543;51.734;8.744;2023-04-25T06:24:35;7.40;99.90
10980;DHT22;5543;51.734;8.744;2023-04-25T06:27:03;7.40;99.90
10980;DHT22;5543;51.734;8.744;2023-04-25T06:29:32;7.50;99.90
10980;DHT22;5543;51.734;8.744;2023-04-25T06:32:00;7.60;99.90
10980;DHT22;5543;51.734;8.744;2023-04-25T06:34:29;7.70;99.90
10980;DHT22;5543;51.734;8.744;2023-04-25T06:36:57;7.80;99.90
10980;DHT22;5543;51.734;8.744;2023-04-25T06:39:26;7.90;99.90
10980;DHT22;5543;51.734;8.744;2023-04-25T06:41:54;8.00;99.90
10980;DHT22;5543;51.734;8.744;2023-04-25T06:44:23;8.00;99.90
10980;DHT22;5543;51.734;8.744;2023-04-25T06:46:52;8.10;99.90
10980;DHT22;5543;51.734;8.744;2023-04-25T06:49:23;8.20;99.90
10980;DHT22;5543;51.734;8.744;2023-04-25T06:51:52;8.30;99.90
10980;DHT22;5543;51.734;8.744;2023-04-25T06:54:20;8.20;99.90
10980;DHT22;5543;51.734;8.744;2023-04-25T06:56:48;8.20;99.90
10980;DHT22;5543;51.734;8.744;2023-04-25T06:59:17;8.40;99.90
10980;DHT22;5543;51.734;8.744;2023-04-25T07:01:45;8.40;99.90
10980;DHT22;5543;51.734;8.744;2023-04-25T07:04:13;8.60;99.90
10980;DHT22;5543;51.734;8.744;2023-04-25T07:06:42;8.70;99.90
10980;DHT22;5543;51.734;8.744;2023-04-25T07:09:12;8.80;99.90
10980;DHT22;5543;51.734;8.744;2023-04-25T07:11:40;8.90;99.90
10980;DHT22;5543;51.734;8.744;2023-04-25T07:14:09;9.00;99.90
10980;DHT22;5543;51.734;8.744;2023-04-25T07:16:38;9.10;99.90
10980;DHT22;5543;51.734;8.744;2023-04-25T07:19:06;9.10;99.90
10980;DHT22;5543;51.734;8.744;2023-04-25T07:21:38;9.10;99.90
10980;DHT22;5543;51.734;8.744;2023-04-25T07:24:16;9.20;99.90
10980;DHT22;5543;51.734;8.744;2023-04-25T07:26:44;9.20;99.90
10980;DHT22;5543;51.734;8.744;2023-04-25T07:29:12;9.10;99.90
10980;DHT22;5543;51.734;8.744;2023-04-25T07:31:40;9.10;99.90
10980;DHT22;5543;51.734;8.744;2023-04-25T07:34:11;9.10;99.90
10980;DHT22;5543;51.734;8.744;2023-04-25T07:36:39;9.20;99.90
10980;DHT22;5543;51.734;8.744;2023-04-25T07:39:07;9.30;99.90
10980;DHT22;5543;51.734;8.744;2023-04-25T07:41:37;9.50;99.90
10980;DHT22;5543;51.734;8.744;2023-04-25T07:44:05;9.50;99.90
10980;DHT22;5543;51.734;8.744;2023-04-25T07:46:33;9.60;99.90
10980;DHT22;5543;51.734;8.744;2023-04-25T07:49:04;9.70;99.90
10980;DHT22;5543;51.734;8.744;2023-04-25T07:51:32;9.80;99.90
10980;DHT22;5543;51.734;8.744;2023-04-25T07:54:01;9.90;99.90
10980;DHT22;5543;51.734;8.744;2023-04-25T07:56:29;10.10;99.90
10980;DHT22;5543;51.734;8.744;2023-04-25T07:59:19;10.20;99.90
10980;DHT22;5543;51.734;8.744;2023-04-25T08:01:47;10.20;99.20
10980;DHT22;5543;51.734;8.744;2023-04-25T08:04:15;10.40;98.50
10980;DHT22;5543;51.734;8.744;2023-04-25T08:06:44;10.40;98.60
10980;DHT22;5543;51.734;8.744;2023-04-25T08:09:13;10.50;98.50
10980;DHT22;5543;51.734;8.744;2023-04-25T08:11:42;10.50;98.10
10980;DHT22;5543;51.734;8.744;2023-04-25T08:14:11;10.60;98.00
10980;DHT22;5543;51.734;8.744;2023-04-25T08:16:41;10.70;97.80
10980;DHT22;5543;51.734;8.744;2023-04-25T08:19:10;10.90;97.30
10980;DHT22;5543;51.734;8.744;2023-04-25T08:21:38;11.00;97.60
10980;DHT22;5543;51.734;8.744;2023-04-25T08:24:06;11.20;96.70
10980;DHT22;5543;51.734;8.744;2023-04-25T08:26:34;11.30;96.20
10980;DHT22;5543;51.734;8.744;2023-04-25T08:29:04;11.50;96.70
10980;DHT22;5543;51.734;8.744;2023-04-25T08:31:33;11.60;96.30
10980;DHT22;5543;51.734;8.744;2023-04-25T08:34:02;12.00;95.20
10980;DHT22;5543;51.734;8.744;2023-04-25T08:36:31;12.50;94.20
10980;DHT22;5543;51.734;8.744;2023-04-25T08:39:06;12.90;93.10
10980;DHT22;5543;51.734;8.744;2023-04-25T08:41:35;12.90;92.50
10980;DHT22;5543;51.734;8.744;2023-04-25T08:44:05;13.00;90.70
10980;DHT22;5543;51.734;8.744;2023-04-25T08:46:35;13.00;91.60
10980;DHT22;5543;51.734;8.744;2023-04-25T08:49:07;13.00;91.50
10980;DHT22;5543;51.734;8.744;2023-04-25T08:51:42;13.10;91.10
10980;DHT22;5543;51.734;8.744;2023-04-25T08:54:12;13.60;90.70
10980;DHT22;5543;51.734;8.744;2023-04-25T08:57:01;14.10;87.50
10980;DHT22;5543;51.734;8.744;2023-04-25T08:59:31;14.40;89.30
10980;DHT22;5543;51.734;8.744;2023-04-25T09:02:01;14.40;88.80
10980;DHT22;5543;51.734;8.744;2023-04-25T09:04:32;14.40;87.70
10980;DHT22;5543;51.734;8.744;2023-04-25T09:07:00;14.20;85.60
10980;DHT22;5543;51.734;8.744;2023-04-25T09:09:29;14.00;86.30
10980;DHT22;5543;51.734;8.744;2023-04-25T09:11:58;13.70;84.30
10980;DHT22;5543;51.734;8.744;2023-04-25T09:14:28;14.00;83.60
10980;DHT22;5543;51.734;8.744;2023-04-25T09:17:01;14.30;82.90
10980;DHT22;5543;51.734;8.744;2023-04-25T09:19:32;14.90;83.40
10980;DHT22;5543;51.734;8.744;2023-04-25T09:22:07;15.70;80.70
10980;DHT22;5543;51.734;8.744;2023-04-25T09:24:37;16.90;80.80
10980;DHT22;5543;51.734;8.744;2023-04-25T09:27:05;18.00;79.60
10980;DHT22;5543;51.734;8.744;2023-04-25T09:29:36;18.40;71.60
10980;DHT22;5543;51.734;8.744;2023-04-25T09:32:15;17.80;69.90
10980;DHT22;5543;51.734;8.744;2023-04-25T09:34:47;16.70;72.70
10980;DHT22;5543;51.734;8.744;2023-04-25T09:37:19;16.10;73.50
10980;DHT22;5543;51.734;8.744;2023-04-25T09:39:49;15.60;73.40
10980;DHT22;5543;51.734;8.744;2023-04-25T09:42:17;15.00;73.00
10980;DHT22;5543;51.734;8.744;2023-04-25T09:44:46;14.30;75.00
10980;DHT22;5543;51.734;8.744;2023-04-25T09:47:15;13.70;75.30
10980;DHT22;5543;51.734;8.744;2023-04-25T09:49:46;13.30;76.90
10980;DHT22;5543;51.734;8.744;2023-04-25T09:52:15;13.00;77.20
10980;DHT22;5543;51.734;8.744;2023-04-25T09:54:44;13.20;78.90
10980;DHT22;5543;51.734;8.744;2023-04-25T09:57:14;13.60;81.20
10980;DHT22;5543;51.734;8.744;2023-04-25T09:59:44;15.00;77.80
10980;DHT22;5543;51.734;8.744;2023-04-25T10:02:15;17.20;76.10
10980;DHT22;5543;51.734;8.744;2023-04-25T10:04:47;19.40;71.60
10980;DHT22;5543;51.734;8.744;2023-04-25T10:07:16;20.40;66.30
10980;DHT22;5543;51.734;8.744;2023-04-25T10:09:48;21.20;68.90
10980;DHT22;5543;51.734;8.744;2023-04-25T10:12:17;21.50;63.30
10980;DHT22;5543;51.734;8.744;2023-04-25T10:14:46;20.10;57.30
10980;DHT22;5543;51.734;8.744;2023-04-25T10:17:14;18.70;57.30
10980;DHT22;5543;51.734;8.744;2023-04-25T10:19:43;17.00;60.60
10980;DHT22;5543;51.734;8.744;2023-04-25T10:22:16;15.90;62.60
10980;DHT22;5543;51.734;8.744;2023-04-25T10:24:46;15.00;64.80
10980;DHT22;5543;51.734;8.744;2023-04-25T10:27:14;14.40;65.40
10980;DHT22;5543;51.734;8.744;2023-04-25T10:29:42;13.90;65.70
10980;DHT22;5543;51.734;8.744;2023-04-25T10:32:11;13.60;69.60
10980;DHT22;5543;51.734;8.744;2023-04-25T10:34:40;15.20;71.20
10980;DHT22;5543;51.734;8.744;2023-04-25T10:37:09;16.90;65.50
10980;DHT22;5543;51.734;8.744;2023-04-25T10:39:40;17.40;59.90
10980;DHT22;5543;51.734;8.744;2023-04-25T10:42:09;16.50;61.40
10980;DHT22;5543;51.734;8.744;2023-04-25T10:44:38;16.00;60.50
10980;DHT22;5543;51.734;8.744;2023-04-25T10:47:07;15.10;61.60
10980;DHT22;5543;51.734;8.744;2023-04-25T10:49:37;14.70;64.10
10980;DHT22;5543;51.734;8.744;2023-04-25T10:52:17;14.20;63.70
10980;DHT22;5543;51.734;8.744;2023-04-25T10:54:53;13.50;64.80
10980;DHT22;5543;51.734;8.744;2023-04-25T10:57:32;12.90;66.90
10980;DHT22;5543;51.734;8.744;2023-04-25T11:00:08;12.70;66.90
10980;DHT22;5543;51.734;8.744;2023-04-25T11:02:41;12.50;69.70
10980;DHT22;5543;51.734;8.744;2023-04-25T11:05:10;12.50;68.60
10980;DHT22;5543;51.734;8.744;2023-04-25T11:07:45;12.20;68.30
10980;DHT22;5543;51.734;8.744;2023-04-25T11:10:32;12.30;69.60
10980;DHT22;5543;51.734;8.744;2023-04-25T11:13:01;12.40;70.40
10980;DHT22;5543;51.734;8.744;2023-04-25T11:15:30;12.20;69.30
10980;DHT22;5543;51.734;8.744;2023-04-25T11:17:58;12.00;68.20
10980;DHT22;5543;51.734;8.744;2023-04-25T11:20:26;12.00;70.00
10980;DHT22;5543;51.734;8.744;2023-04-25T11:22:57;12.20;72.10
10980;DHT22;5543;51.734;8.744;2023-04-25T11:25:27;12.40;75.90
10980;DHT22;5543;51.734;8.744;2023-04-25T11:27:58;12.60;73.00
10980;DHT22;5543;51.734;8.744;2023-04-25T11:30:28;13.20;69.30
10980;DHT22;5543;51.734;8.744;2023-04-25T11:32:57;13.90;70.40
10980;DHT22;5543;51.734;8.744;2023-04-25T11:35:26;14.90;71.40
10980;DHT22;5543;51.734;8.744;2023-04-25T11:37:54;15.80;64.20
10980;DHT22;5543;51.734;8.744;2023-04-25T11:40:22;16.00;64.50
10980;DHT22;5543;51.734;8.744;2023-04-25T11:42:51;16.40;63.40
10980;DHT22;5543;51.734;8.744;2023-04-25T11:45:23;16.90;63.30
10980;DHT22;5543;51.734;8.744;2023-04-25T11:47:51;17.70;63.30
10980;DHT22;5543;51.734;8.744;2023-04-25T11:50:20;17.60;61.10
10980;DHT22;5543;51.734;8.744;2023-04-25T11:52:48;17.50;57.80
10980;DHT22;5543;51.734;8.744;2023-04-25T11:55:18;16.80;61.20
10980;DHT22;5543;51.734;8.744;2023-04-25T11:57:48;16.40;62.50
10980;DHT22;5543;51.734;8.744;2023-04-25T12:00:18;16.20;60.80
10980;DHT22;5543;51.734;8.744;2023-04-25T12:02:51;15.80;63.80
10980;DHT22;5543;51.734;8.744;2023-04-25T12:05:24;15.10;62.20
10980;DHT22;5543;51.734;8.744;2023-04-25T12:08:10;14.00;63.10
10980;DHT22;5543;51.734;8.744;2023-04-25T12:10:40;13.30;64.10
10980;DHT22;5543;51.734;8.744;2023-04-25T12:13:20;12.80;63.90
10980;DHT22;5543;51.734;8.744;2023-04-25T12:15:49;12.40;65.70
10980;DHT22;5543;51.734;8.744;2023-04-25T12:18:21;12.20;68.30
10980;DHT22;5543;51.734;8.744;2023-04-25T12:20:52;12.40;68.10
10980;DHT22;5543;51.734;8.744;2023-04-25T12:23:25;13.10;68.70
10980;DHT22;5543;51.734;8.744;2023-04-25T12:25:54;13.70;66.00
10980;DHT22;5543;51.734;8.744;2023-04-25T12:28:24;14.00;64.30
10980;DHT22;5543;51.734;8.744;2023-04-25T12:30:55;14.10;65.00
10980;DHT22;5543;51.734;8.744;2023-04-25T12:33:26;14.20;62.80
10980;DHT22;5543;51.734;8.744;2023-04-25T12:35:55;14.10;65.20
10980;DHT22;5543;51.734;8.744;2023-04-25T12:38:25;14.20;66.30
10980;DHT22;5543;51.734;8.744;2023-04-25T12:40:54;14.10;65.20
10980;DHT22;5543;51.734;8.744;2023-04-25T12:43:22;14.30;67.50
10980;DHT22;5543;51.734;8.744;2023-04-25T12:45:51;14.70;65.60
10980;DHT22;5543;51.734;8.744;2023-04-25T12:48:20;15.70;64.80
10980;DHT22;5543;51.734;8.744;2023-04-25T12:50:50;16.80;61.50
10980;DHT22;5543;51.734;8.744;2023-04-25T12:53:20;17.80;63.10
10980;DHT22;5543;51.734;8.744;2023-04-25T12:55:48;18.20;62.20
10980;DHT22;5543;51.734;8.744;2023-04-25T12:58:18;19.30;57.60
10980;DHT22;5543;51.734;8.744;2023-04-25T13:00:46;19.60;59.60
10980;DHT22;5543;51.734;8.744;2023-04-25T13:03:15;20.60;57.10
10980;DHT22;5543;51.734;8.744;2023-04-25T13:05:43;20.40;54.40
10980;DHT22;5543;51.734;8.744;2023-04-25T13:08:13;20.00;57.30
10980;DHT22;5543;51.734;8.744;2023-04-25T13:10:42;19.80;54.90
10980;DHT22;5543;51.734;8.744;2023-04-25T13:13:10;19.30;55.10
10980;DHT22;5543;51.734;8.744;2023-04-25T13:15:38;18.20;57.10
10980;DHT22;5543;51.734;8.744;2023-04-25T13:18:06;17.80;58.30
10980;DHT22;5543;51.734;8.744;2023-04-25T13:20:34;17.90;58.00
10980;DHT22;5543;51.734;8.744;2023-04-25T13:23:03;17.50;56.30
10980;DHT22;5543;51.734;8.744;2023-04-25T13:25:32;17.30;56.60
10980;DHT22;5543;51.734;8.744;2023-04-25T13:28:01;17.60;57.60
10980;DHT22;5543;51.734;8.744;2023-04-25T13:30:29;17.80;57.10
10980;DHT22;5543;51.734;8.744;2023-04-25T13:32:57;17.80;57.10
10980;DHT22;5543;51.734;8.744;2023-04-25T13:35:30;17.90;60.50
10980;DHT22;5543;51.734;8.744;2023-04-25T13:37:59;19.00;59.50
10980;DHT22;5543;51.734;8.744;2023-04-25T13:40:27;19.90;55.70
10980;DHT22;5543;51.734;8.744;2023-04-25T13:42:57;20.10;56.10
10980;DHT22;5543;51.734;8.744;2023-04-25T13:45:25;20.40;56.40
10980;DHT22;5543;51.734;8.744;2023-04-25T13:47:54;21.20;59.60
10980;DHT22;5543;51.734;8.744;2023-04-25T13:50:23;21.90;55.20
10980;DHT22;5543;51.734;8.744;2023-04-25T13:52:51;22.20;55.00
10980;DHT22;5543;51.734;8.744;2023-04-25T13:55:19;23.20;52.70
10980;DHT22;5543;51.734;8.744;2023-04-25T13:57:47;23.40;49.20
10980;DHT22;5543;51.734;8.744;2023-04-25T14:00:18;22.40;51.00
10980;DHT22;5543;51.734;8.744;2023-04-25T14:02:47;22.70;51.90
10980;DHT22;5543;51.734;8.744;2023-04-25T14:05:16;22.60;48.90
10980;DHT22;5543;51.734;8.744;2023-04-25T14:07:45;22.50;50.60
10980;DHT22;5543;51.734;8.744;2023-04-25T14:10:13;22.50;47.80
10980;DHT22;5543;51.734;8.744;2023-04-25T14:12:42;21.90;48.60
10980;DHT22;5543;51.734;8.744;2023-04-25T14:15:10;21.60;47.50
10980;DHT22;5543;51.734;8.744;2023-04-25T14:17:40;22.70;48.50
10980;DHT22;5543;51.734;8.744;2023-04-25T14:20:09;22.60;47.30
10980;DHT22;5543;51.734;8.744;2023-04-25T14:22:38;21.10;48.90
10980;DHT22;5543;51.734;8.744;2023-04-25T14:25:09;19.80;52.60
10980;DHT22;5543;51.734;8.744;2023-04-25T14:27:38;18.30;54.90
10980;DHT22;5543;51.734;8.744;2023-04-25T14:30:07;17.00;56.50
10980;DHT22;5543;51.734;8.744;2023-04-25T14:32:36;16.40;58.00
10980;DHT22;5543;51.734;8.744;2023-04-25T14:35:07;15.80;59.50
10980;DHT22;5543;51.734;8.744;2023-04-25T14:37:35;14.90;60.30
10980;DHT22;5543;51.734;8.744;2023-04-25T14:40:05;14.00;63.60
10980;DHT22;5543;51.734;8.744;2023-04-25T14:42:35;13.50;62.80
10980;DHT22;5543;51.734;8.744;2023-04-25T14:45:04;13.00;63.80
10980;DHT22;5543;51.734;8.744;2023-04-25T14:47:34;12.60;65.20
10980;DHT22;5543;51.734;8.744;2023-04-25T14:50:03;12.20;65.10
10980;DHT22;5543;51.734;8.744;2023-04-25T14:52:33;12.00;67.20
10980;DHT22;5543;51.734;8.744;2023-04-25T14:55:02;11.80;67.80
10980;DHT22;5543;51.734;8.744;2023-04-25T14:57:32;11.70;66.60
10980;DHT22;5543;51.734;8.744;2023-04-25T15:00:00;11.40;66.70
10980;DHT22;5543;51.734;8.744;2023-04-25T15:02:31;11.20;68.00
10980;DHT22;5543;51.734;8.744;2023-04-25T15:05:00;11.10;69.50
10980;DHT22;5543;51.734;8.744;2023-04-25T15:07:28;10.90;70.40
10980;DHT22;5543;51.734;8.744;2023-04-25T15:09:58;10.70;70.00
10980;DHT22;5543;51.734;8.744;2023-04-25T15:12:27;10.60;71.70
10980;DHT22;5543;51.734;8.744;2023-04-25T15:14:55;10.40;73.60
10980;DHT22;5543;51.734;8.744;2023-04-25T15:17:23;10.30;75.00
10980;DHT22;5543;51.734;8.744;2023-04-25T15:19:52;9.90;78.70
10980;DHT22;5543;51.734;8.744;2023-04-25T15:22:21;9.80;80.30
10980;DHT22;5543;51.734;8.744;2023-04-25T15:24:49;9.70;80.90
10980;DHT22;5543;51.734;8.744;2023-04-25T15:27:19;9.50;83.90
10980;DHT22;5543;51.734;8.744;2023-04-25T15:29:48;9.40;85.40
10980;DHT22;5543;51.734;8.744;2023-04-25T15:32:16;9.40;86.50
10980;DHT22;5543;51.734;8.744;2023-04-25T15:34:44;9.40;86.80
10980;DHT22;5543;51.734;8.744;2023-04-25T15:37:13;9.50;88.50
10980;DHT22;5543;51.734;8.744;2023-04-25T15:39:41;9.50;88.40
10980;DHT22;5543;51.734;8.744;2023-04-25T15:42:09;9.50;88.70
10980;DHT22;5543;51.734;8.744;2023-04-25T15:44:39;9.60;90.10
10980;DHT22;5543;51.734;8.744;2023-04-25T15:47:07;10.10;88.40
10980;DHT22;5543;51.734;8.744;2023-04-25T15:49:35;10.90;86.80
10980;DHT22;5543;51.734;8.744;2023-04-25T15:52:03;11.50;81.90
10980;DHT22;5543;51.734;8.744;2023-04-25T15:54:31;11.90;80.70
10980;DHT22;5543;51.734;8.744;2023-04-25T15:57:00;12.20;75.00
10980;DHT22;5543;51.734;8.744;2023-04-25T15:59:28;12.50;75.00
10980;DHT22;5543;51.734;8.744;2023-04-25T16:01:57;12.70;74.90
10980;DHT22;5543;51.734;8.744;2023-04-25T16:04:25;12.90;73.40
10980;DHT22;5543;51.734;8.744;2023-04-25T16:06:56;12.70;73.40